createdAt,value
2022-08-07T00:05:03.910Z,16.08
2022-08-07T00:07:40.627Z,16.67
2022-08-07T00:10:26.868Z,17.73
2022-08-07T00:13:00.153Z,15.88
2022-08-07T00:15:37.644Z,15.70
2022-08-07T00:18:18.909Z,16.42
2022-08-07T00:20:49.728Z,16.48
2022-08-07T00:23:17.847Z,16.95
2022-08-07T00:25:52.065Z,16.02
2022-08-07T00:28:33.821Z,17.10
2022-08-07T00:31:06.121Z,17.13
2022-08-07T00:33:41.140Z,16.45
2022-08-07T00:36:11.284Z,16.95
2022-08-07T00:38:39.719Z,15.43
2022-08-07T00:41:09.986Z,16.42
2022-08-07T00:44:00.446Z,16.20
2022-08-07T00:46:32.950Z,16.58
2022-08-07T00:49:02.346Z,16.13
2022-08-07T00:51:57.616Z,17.05
2022-08-07T00:54:20.123Z,15.70
2022-08-07T00:56:49.921Z,17.30
2022-08-07T00:59:17.936Z,16.98
2022-08-07T01:01:48.414Z,16.87
2022-08-07T01:04:24.546Z,16.75
2022-08-07T01:06:54.290Z,17.85
2022-08-07T01:10:04.991Z,17.10
2022-08-07T01:12:29.846Z,17.35
2022-08-07T01:15:01.562Z,17.48
2022-08-07T01:17:33.051Z,18.52
2022-08-07T01:20:05.641Z,17.58
2022-08-07T01:22:36.657Z,18.92
2022-08-07T01:25:54.695Z,18.45
2022-08-07T01:27:53.599Z,17.85
2022-08-07T01:30:27.252Z,17.27
2022-08-07T01:32:55.508Z,18.58
2022-08-07T01:35:26.598Z,19.63
2022-08-07T01:38:25.178Z,17.95
2022-08-07T01:40:56.961Z,17.98
2022-08-07T01:43:27.521Z,18.58
2022-08-07T01:46:08.075Z,19.30
2022-08-07T01:48:40.990Z,19.17
2022-08-07T01:52:00.923Z,17.80
2022-08-07T01:54:12.577Z,19.92
2022-08-07T01:56:53.210Z,18.90
2022-08-07T01:59:31.179Z,18.13
2022-08-07T02:02:04.427Z,19.42
2022-08-07T02:04:56.322Z,18.98
2022-08-07T02:07:36.135Z,18.35
2022-08-07T02:10:26.093Z,18.50
2022-08-07T02:12:59.520Z,19.63
2022-08-07T02:15:30.174Z,19.50
2022-08-07T02:18:03.791Z,19.60
2022-08-07T02:20:33.515Z,17.85
2022-08-07T02:23:06.163Z,19.25
2022-08-07T02:28:28.609Z,18.63
2022-08-07T02:30:57.750Z,19.65
2022-08-07T02:33:42.009Z,19.75
2022-08-07T02:39:02.757Z,19.77
2022-08-07T02:41:47.331Z,19.65
2022-08-07T02:44:26.875Z,20.35
2022-08-07T02:47:03.773Z,20.15
2022-08-07T02:49:56.431Z,20.65
2022-08-07T02:52:31.228Z,20.40
2022-08-07T02:55:04.838Z,21.10
2022-08-07T02:57:57.149Z,19.92
2022-08-07T03:00:28.098Z,20.30
2022-08-07T03:03:00.052Z,21.27
2022-08-07T03:05:35.905Z,21.17
2022-08-07T03:08:09.460Z,21.83
2022-08-07T03:10:41.071Z,21.38
2022-08-07T03:13:19.634Z,21.95
2022-08-07T03:15:56.490Z,22.77
2022-08-07T03:18:34.808Z,22.60
2022-08-07T03:21:08.726Z,22.85
2022-08-07T03:24:17.944Z,22.13
2022-08-07T03:26:29.989Z,21.98
2022-08-07T03:31:42.867Z,22.33
2022-08-07T03:34:18.506Z,22.65
2022-08-07T03:36:52.889Z,23.15
2022-08-07T03:39:58.882Z,22.77
2022-08-07T03:42:11.350Z,22.08
2022-08-07T03:44:42.499Z,23.40
2022-08-07T03:47:15.581Z,24.10
2022-08-07T03:49:47.963Z,22.48
2022-08-07T03:52:26.105Z,22.40
2022-08-07T03:54:59.016Z,23.25
2022-08-07T03:58:33.428Z,22.13
2022-08-07T04:00:30.475Z,22.75
2022-08-07T04:03:04.012Z,25.05
2022-08-07T04:08:11.498Z,22.85
2022-08-07T04:10:42.205Z,22.30
2022-08-07T04:13:15.067Z,23.58
2022-08-07T04:15:45.687Z,23.05
2022-08-07T04:18:58.353Z,21.15
2022-08-07T04:21:07.278Z,21.88
2022-08-07T04:23:43.706Z,21.42
2022-08-07T04:26:23.850Z,21.30
2022-08-07T04:28:56.235Z,23.08
2022-08-07T04:31:38.852Z,21.48
2022-08-07T04:34:23.975Z,22.02
2022-08-07T04:36:55.920Z,21.10
2022-08-07T04:39:25.963Z,22.83
2022-08-07T04:41:54.053Z,22.15
2022-08-07T04:44:22.019Z,20.90
2022-08-07T04:47:04.221Z,21.98
2022-08-07T04:49:57.392Z,20.98
2022-08-07T04:52:36.873Z,21.63
2022-08-07T04:58:13.159Z,21.13
2022-08-07T04:58:38.826Z,21.48
2022-08-07T05:01:18.322Z,22.23
2022-08-07T05:04:06.743Z,21.65
2022-08-07T05:06:43.848Z,21.65
2022-08-07T05:09:43.034Z,21.48
2022-08-07T05:12:26.891Z,20.50
2022-08-07T05:17:50.970Z,21.02
2022-08-07T05:20:30.967Z,21.50
2022-08-07T05:23:04.354Z,21.90
2022-08-07T05:26:10.490Z,21.40
2022-08-07T05:28:26.806Z,21.00
2022-08-07T05:30:57.288Z,22.02
2022-08-07T05:33:27.804Z,22.05
2022-08-07T05:35:58.323Z,22.03
2022-08-07T05:38:59.451Z,22.10
2022-08-07T05:41:18.446Z,21.17
2022-08-07T05:44:08.613Z,21.77
2022-08-07T05:46:41.277Z,20.80
2022-08-07T05:49:12.642Z,19.95
2022-08-07T05:51:46.635Z,20.10
2022-08-07T05:54:30.167Z,20.60
2022-08-07T05:57:01.230Z,19.50
2022-08-07T05:59:39.075Z,20.77
2022-08-07T06:02:28.672Z,19.30
2022-08-07T06:05:03.680Z,19.92
2022-08-07T06:08:13.406Z,19.67
2022-08-07T06:10:24.174Z,19.95
2022-08-07T06:12:52.549Z,19.75
2022-08-07T06:15:20.887Z,19.73
2022-08-07T06:17:53.449Z,19.13
2022-08-07T06:20:25.635Z,18.83
2022-08-07T06:23:46.320Z,19.52
2022-08-07T06:25:57.858Z,19.83
2022-08-07T06:28:27.878Z,19.15
2022-08-07T06:30:58.235Z,18.52
2022-08-07T06:33:26.613Z,20.15
2022-08-07T06:36:13.025Z,18.83
2022-08-07T06:38:51.377Z,19.60
2022-08-07T06:42:02.156Z,19.92
2022-08-07T06:44:22.686Z,19.33
2022-08-07T06:46:53.522Z,19.08
2022-08-07T06:49:52.356Z,18.95
2022-08-07T06:52:31.325Z,17.05
2022-08-07T06:55:32.932Z,16.77
2022-08-07T06:58:00.031Z,16.77
2022-08-07T07:00:31.173Z,16.03
2022-08-07T07:03:01.190Z,17.00
2022-08-07T07:06:03.765Z,17.38
2022-08-07T07:08:28.288Z,15.73
2022-08-07T07:11:01.403Z,16.23
2022-08-07T07:13:58.264Z,17.10
2022-08-07T07:16:45.195Z,17.83
2022-08-07T07:19:55.311Z,15.90
2022-08-07T07:22:34.198Z,15.80
2022-08-07T07:25:14.054Z,16.85
2022-08-07T07:27:58.557Z,17.10
2022-08-07T07:30:38.543Z,15.25
2022-08-07T07:33:11.709Z,15.60
2022-08-07T07:35:50.639Z,13.52
2022-08-07T07:38:32.511Z,12.90
2022-08-07T07:41:05.087Z,12.60
2022-08-07T07:44:13.600Z,12.35
2022-08-07T07:46:40.606Z,12.48
2022-08-07T07:50:36.177Z,12.90
2022-08-07T07:52:12.738Z,12.60
2022-08-07T07:54:44.314Z,11.93
2022-08-07T07:57:29.110Z,11.80
2022-08-07T08:00:21.100Z,12.40
2022-08-07T08:03:06.198Z,12.88
2022-08-07T08:05:43.203Z,11.90
2022-08-07T08:08:34.603Z,11.07
2022-08-07T08:11:16.082Z,10.70
2022-08-07T08:13:53.262Z,11.93
2022-08-07T08:16:30.926Z,12.15
2022-08-07T08:19:17.416Z,10.63
2022-08-07T08:21:55.731Z,10.38
2022-08-07T08:24:45.830Z,11.15
2022-08-07T08:27:18.083Z,10.25
2022-08-07T08:29:54.469Z,8.85
2022-08-07T08:32:39.325Z,8.73
2022-08-07T08:35:10.662Z,8.35
2022-08-07T08:38:01.604Z,8.50
2022-08-07T08:40:32.186Z,9.02
2022-08-07T08:43:09.228Z,8.55
2022-08-07T08:45:59.013Z,8.35
2022-08-07T08:48:38.449Z,8.75
2022-08-07T08:51:26.095Z,8.85
2022-08-07T08:54:10.559Z,8.43
2022-08-07T08:56:47.184Z,8.02
2022-08-07T08:59:20.436Z,8.15
2022-08-07T09:02:00.505Z,6.00
2022-08-07T09:04:41.562Z,6.32
2022-08-07T09:07:24.448Z,6.22
2022-08-07T09:10:02.570Z,7.07
2022-08-07T09:12:43.082Z,6.78
2022-08-07T09:16:22.697Z,7.05
2022-08-07T09:18:53.225Z,6.97
2022-08-07T09:22:22.409Z,6.50
2022-08-07T09:27:38.318Z,7.00
2022-08-07T09:30:27.928Z,6.18
2022-08-07T09:33:16.772Z,6.25
2022-08-07T09:36:04.777Z,7.80
2022-08-07T09:38:50.104Z,7.35
2022-08-07T09:41:43.242Z,7.43
2022-08-07T09:44:32.966Z,6.80
2022-08-07T09:48:01.523Z,6.80
2022-08-07T09:50:26.512Z,7.28
2022-08-07T09:53:01.368Z,6.47
2022-08-07T09:56:03.786Z,6.90
2022-08-07T09:58:59.689Z,6.75
2022-08-07T10:01:51.222Z,6.40
2022-08-07T10:04:38.138Z,6.45
2022-08-07T10:07:24.370Z,6.70
2022-08-07T10:10:21.601Z,6.75
2022-08-07T10:13:29.635Z,6.18
2022-08-07T10:16:16.287Z,6.85
2022-08-07T10:19:11.220Z,6.30
2022-08-07T10:22:16.282Z,6.15
2022-08-07T10:24:51.166Z,5.93
2022-08-07T10:27:46.395Z,5.32
2022-08-07T10:30:19.448Z,5.70
2022-08-07T10:33:08.282Z,6.10
2022-08-07T10:36:05.622Z,6.05
2022-08-07T10:38:51.209Z,5.88
2022-08-07T10:41:53.130Z,5.47
2022-08-07T10:44:38.058Z,6.07
2022-08-07T10:47:27.061Z,5.85
2022-08-07T10:50:17.025Z,5.57
2022-08-07T10:52:55.673Z,6.13
2022-08-07T10:55:37.672Z,5.10
2022-08-07T10:58:18.073Z,6.18
2022-08-07T11:01:15.109Z,5.82
2022-08-07T11:04:05.387Z,5.75
2022-08-07T11:06:48.084Z,6.05
2022-08-07T11:10:07.747Z,5.75
2022-08-07T11:12:19.030Z,6.10
2022-08-07T11:15:09.691Z,5.88
2022-08-07T11:17:49.897Z,6.30
2022-08-07T11:20:31.253Z,6.18
2022-08-07T11:23:07.470Z,5.70
2022-08-07T11:25:47.953Z,5.22
2022-08-07T11:28:21.212Z,6.05
2022-08-07T11:30:59.776Z,6.40
2022-08-07T11:33:54.315Z,5.20
2022-08-07T11:36:38.316Z,5.78
2022-08-07T11:39:19.678Z,5.25
2022-08-07T11:42:02.092Z,5.60
2022-08-07T11:44:52.720Z,5.22
2022-08-07T11:47:38.863Z,4.93
2022-08-07T11:50:36.379Z,5.35
2022-08-07T11:53:28.652Z,4.97
2022-08-07T11:56:27.044Z,5.13
2022-08-07T12:00:08.330Z,4.63
2022-08-07T12:02:17.693Z,5.15
2022-08-07T12:05:15.032Z,4.25
2022-08-07T12:08:03.698Z,6.65
2022-08-07T12:10:41.882Z,4.57
2022-08-07T12:13:17.207Z,4.68
2022-08-07T12:16:06.355Z,4.50
2022-08-07T12:18:45.225Z,4.43
2022-08-07T12:22:36.240Z,4.60
2022-08-07T12:24:38.103Z,4.80
2022-08-07T12:27:16.681Z,4.60
2022-08-07T12:29:53.841Z,4.53
2022-08-07T12:32:31.122Z,4.80
2022-08-07T12:35:02.400Z,3.85
2022-08-07T12:38:09.333Z,4.15
2022-08-07T12:44:02.728Z,4.18
2022-08-07T12:46:32.161Z,4.28
2022-08-07T12:49:09.907Z,4.60
2022-08-07T12:51:51.372Z,4.57
2022-08-07T12:54:41.177Z,5.72
2022-08-07T12:57:10.922Z,5.10
2022-08-07T12:59:54.299Z,4.50
2022-08-07T13:02:42.284Z,4.45
2022-08-07T13:06:03.858Z,4.70
2022-08-07T13:08:27.770Z,3.95
2022-08-07T13:11:08.778Z,3.55
2022-08-07T13:13:57.423Z,5.45
2022-08-07T13:16:36.587Z,3.70
2022-08-07T13:19:21.989Z,4.22
2022-08-07T13:22:19.779Z,4.05
2022-08-07T13:25:00.550Z,4.22
2022-08-07T13:28:10.828Z,4.38
2022-08-07T13:30:41.171Z,4.47
2022-08-07T13:34:32.662Z,4.22
2022-08-07T13:38:55.999Z,4.25
2022-08-07T13:41:35.202Z,4.53
2022-08-07T13:44:05.240Z,5.07
2022-08-07T13:46:49.366Z,4.53
2022-08-07T13:50:34.443Z,6.28
2022-08-07T13:52:26.476Z,4.72
2022-08-07T13:54:59.165Z,4.85
2022-08-07T13:57:32.215Z,4.95
2022-08-07T14:00:07.460Z,4.63
2022-08-07T14:02:49.349Z,4.43
2022-08-07T14:05:23.528Z,4.18
2022-08-07T14:08:00.417Z,4.60
2022-08-07T14:10:42.251Z,4.60
2022-08-07T14:13:16.668Z,4.53
2022-08-07T14:15:53.460Z,4.18
2022-08-07T14:18:30.620Z,4.00
2022-08-07T14:21:08.074Z,4.80
2022-08-07T14:24:00.162Z,3.80
2022-08-07T14:26:40.620Z,5.30
2022-08-07T14:30:08.023Z,4.43
2022-08-07T14:32:13.099Z,4.28
2022-08-07T14:34:46.030Z,4.43
2022-08-07T14:37:18.457Z,4.68
2022-08-07T14:40:15.804Z,4.75
2022-08-07T14:43:00.659Z,5.07
2022-08-07T14:48:20.383Z,4.57
2022-08-07T14:50:51.065Z,4.60
2022-08-07T14:56:13.172Z,4.63
2022-08-07T14:58:54.136Z,4.20
2022-08-07T15:01:27.600Z,4.25
2022-08-07T15:04:13.041Z,4.38
2022-08-07T15:09:58.492Z,4.28
2022-08-07T15:12:26.049Z,4.80
2022-08-07T15:15:07.580Z,27.73
2022-08-07T15:17:54.662Z,27.50
2022-08-07T15:23:22.226Z,4.40
2022-08-07T15:26:21.097Z,4.72
2022-08-07T15:29:00.971Z,4.50
2022-08-07T15:31:57.706Z,4.30
2022-08-07T15:34:26.903Z,4.32
2022-08-07T15:37:04.224Z,5.95
2022-08-07T15:39:56.927Z,5.82
2022-08-07T15:42:51.728Z,4.90
2022-08-07T15:48:29.948Z,3.83
2022-08-07T15:51:09.580Z,3.80
2022-08-07T15:53:53.024Z,4.32
2022-08-07T15:56:29.469Z,4.03
2022-08-07T15:59:05.847Z,4.03
2022-08-07T16:01:40.514Z,3.90
2022-08-07T16:04:14.716Z,4.30
2022-08-07T16:06:53.344Z,75.35
2022-08-07T16:09:41.083Z,36.15
2022-08-07T16:12:28.652Z,103.55
2022-08-07T16:15:54.541Z,102.38
2022-08-07T16:18:49.628Z,44.40
2022-08-07T16:21:57.092Z,194.20
2022-08-07T16:24:34.316Z,43.97
2022-08-07T16:27:18.118Z,24.08
2022-08-07T16:30:29.704Z,11.55
2022-08-07T16:34:06.775Z,8.57
2022-08-07T16:36:19.874Z,7.10
2022-08-07T16:39:33.532Z,5.03
2022-08-07T16:42:37.624Z,5.32
2022-08-07T16:46:20.978Z,4.70
2022-08-07T16:50:28.056Z,4.95
2022-08-07T16:52:41.694Z,4.70
2022-08-07T16:54:57.957Z,4.32
2022-08-07T16:58:01.844Z,4.80
2022-08-07T17:00:29.459Z,5.07
2022-08-07T17:03:17.384Z,5.30
2022-08-07T17:06:01.683Z,5.32
2022-08-07T17:09:10.620Z,4.68
2022-08-07T17:12:05.250Z,7.25
2022-08-07T17:17:19.033Z,9.20
2022-08-07T17:20:02.762Z,30.10
2022-08-07T17:22:37.826Z,32.70
2022-08-07T17:25:16.465Z,26.50
2022-08-07T17:27:59.202Z,44.70
2022-08-07T17:30:35.898Z,38.13
2022-08-07T17:34:09.067Z,44.08
2022-08-07T17:36:13.672Z,32.95
2022-08-07T17:38:55.345Z,17.35
2022-08-07T17:42:02.023Z,12.50
2022-08-07T17:44:33.782Z,14.65
2022-08-07T17:47:16.970Z,14.80
2022-08-07T17:50:16.445Z,19.00
2022-08-07T17:52:54.222Z,22.95
2022-08-07T17:56:00.203Z,36.47
2022-08-07T17:58:30.425Z,41.33
2022-08-07T18:01:02.803Z,90.93
2022-08-07T18:04:16.380Z,72.90
2022-08-07T18:07:19.197Z,36.60
2022-08-07T18:10:05.276Z,23.35
2022-08-07T18:12:48.192Z,17.90
2022-08-07T18:15:22.162Z,19.33
2022-08-07T18:18:45.834Z,20.30
2022-08-07T18:21:08.366Z,35.97
2022-08-07T18:23:58.875Z,38.63
2022-08-07T18:26:44.615Z,18.88
2022-08-07T18:30:08.388Z,15.93
2022-08-07T18:32:24.752Z,12.82
2022-08-07T18:35:15.649Z,10.13
2022-08-07T18:41:02.788Z,11.30
2022-08-07T18:43:57.809Z,10.63
2022-08-07T18:46:32.522Z,9.73
2022-08-07T18:50:30.571Z,9.38
2022-08-07T18:52:37.841Z,8.48
2022-08-07T18:55:40.307Z,9.05
2022-08-07T18:58:20.085Z,13.98
2022-08-07T19:01:01.069Z,11.02
2022-08-07T19:03:37.757Z,12.63
2022-08-07T19:06:16.237Z,15.77
2022-08-07T19:08:58.597Z,14.77
2022-08-07T19:12:04.281Z,14.13
2022-08-07T19:14:59.202Z,10.75
2022-08-07T19:18:01.593Z,9.95
2022-08-07T19:20:38.741Z,8.77
2022-08-07T19:23:58.395Z,6.68
2022-08-07T19:26:28.976Z,5.75
2022-08-07T19:31:03.821Z,6.15
2022-08-07T19:32:10.323Z,4.95
2022-08-07T19:34:47.943Z,5.30
2022-08-07T19:37:19.196Z,5.88
2022-08-07T19:40:01.971Z,5.95
2022-08-07T19:42:39.916Z,5.80
2022-08-07T19:46:05.128Z,5.78
2022-08-07T19:48:04.096Z,6.97
2022-08-07T19:50:53.156Z,5.85
2022-08-07T19:54:31.809Z,6.68
2022-08-07T19:57:56.770Z,5.50
2022-08-07T19:59:01.571Z,6.25
2022-08-07T20:01:57.004Z,6.70
2022-08-07T20:04:31.127Z,7.15
2022-08-07T20:07:01.703Z,7.90
2022-08-07T20:10:33.592Z,7.50
2022-08-07T20:12:34.858Z,8.43
2022-08-07T20:15:15.504Z,8.00
2022-08-07T20:18:01.777Z,9.13
2022-08-07T20:20:33.950Z,8.80
2022-08-07T20:23:22.996Z,8.60
2022-08-07T20:25:55.581Z,9.40
2022-08-07T20:28:29.215Z,9.02
2022-08-07T20:30:59.162Z,9.35
2022-08-07T20:33:37.533Z,9.18
2022-08-07T20:36:09.830Z,9.20
2022-08-07T20:38:53.629Z,8.27
2022-08-07T20:41:33.972Z,8.85
2022-08-07T20:44:12.851Z,8.45
2022-08-07T20:46:42.796Z,8.95
2022-08-07T20:49:58.930Z,8.20
2022-08-07T20:52:14.295Z,9.77
2022-08-07T20:54:53.912Z,9.35
2022-08-07T20:57:25.400Z,9.35
2022-08-07T21:00:06.637Z,9.57
2022-08-07T21:02:55.161Z,9.60
2022-08-07T21:05:52.915Z,10.18
2022-08-07T21:08:36.743Z,9.88
2022-08-07T21:11:10.706Z,9.75
2022-08-07T21:14:29.505Z,10.60
2022-08-07T21:16:46.675Z,11.30
2022-08-07T21:19:32.145Z,11.10
2022-08-07T21:22:16.699Z,11.20
2022-08-07T21:25:12.178Z,10.73
2022-08-07T21:28:02.019Z,12.02
2022-08-07T21:30:42.167Z,10.80
2022-08-07T21:33:16.703Z,11.88
2022-08-07T21:36:06.754Z,11.73
2022-08-07T21:38:50.099Z,12.05
2022-08-07T21:41:26.921Z,12.35
2022-08-07T21:44:14.613Z,11.50
2022-08-07T21:47:01.483Z,11.88
2022-08-07T21:50:00.615Z,12.32
2022-08-07T21:52:34.257Z,11.50
2022-08-07T21:55:11.868Z,12.75
2022-08-07T21:57:53.647Z,12.00
2022-08-07T22:00:25.148Z,11.77
2022-08-07T22:03:00.602Z,12.35
2022-08-07T22:05:45.748Z,12.38
2022-08-07T22:08:19.702Z,11.55
2022-08-07T22:10:51.094Z,12.05
2022-08-07T22:13:24.657Z,12.05
2022-08-07T22:16:42.455Z,11.90
2022-08-07T22:19:08.044Z,12.45
2022-08-07T22:22:04.662Z,11.05
2022-08-07T22:24:34.495Z,11.52
2022-08-07T22:27:06.952Z,12.75
2022-08-07T22:29:48.372Z,12.02
2022-08-07T22:32:26.490Z,11.57
2022-08-07T22:34:56.250Z,12.15
2022-08-07T22:38:04.523Z,12.75
2022-08-07T22:40:29.737Z,12.27
2022-08-07T22:43:02.244Z,12.93
2022-08-07T22:46:21.556Z,11.45
2022-08-07T22:49:09.432Z,11.93
2022-08-07T22:51:54.251Z,12.02
2022-08-07T22:54:48.746Z,11.25
2022-08-07T22:57:40.935Z,11.77
2022-08-07T23:00:14.899Z,11.55
2022-08-07T23:03:12.251Z,12.70
2022-08-07T23:06:09.778Z,11.60
2022-08-07T23:08:53.059Z,13.10
2022-08-07T23:11:41.299Z,11.15
2022-08-07T23:14:33.040Z,10.88
2022-08-07T23:17:19.880Z,11.35
2022-08-07T23:20:03.292Z,11.13
2022-08-07T23:22:46.418Z,12.32
2022-08-07T23:25:32.512Z,11.13
2022-08-07T23:28:21.548Z,12.07
2022-08-07T23:31:13.697Z,12.50
2022-08-07T23:34:33.967Z,11.80
2022-08-07T23:37:19.052Z,11.38
2022-08-07T23:40:06.052Z,11.57
2022-08-07T23:42:54.527Z,11.55
2022-08-07T23:45:33.391Z,12.63
2022-08-07T23:48:58.716Z,11.45
2022-08-07T23:53:00.427Z,12.10
2022-08-07T23:54:44.297Z,12.23
2022-08-07T23:57:23.796Z,12.60
